LLBG/TLV METAR and TAF weather

Enter ICAO airport designator
Station Type Date Time Source
LLBG METAR 2019/08/21 22:20 UTC NOAA

LLBG 212220Z VRB03KT 9999 FEW025 26/20 Q1011 NOSIG


Station Type Date Time Source
LLBG Decoded METAR 2019/08/21 22:20 UTC NOAA

Station name not available
Aug 21, 2019 - 06:20 PM EDT / 2019.08.21 2220 UTC
Wind: Variable at 3 MPH (3 KT):0
Visibility: greater than 7 mile(s):0
Sky conditions: mostly clear
Temperature: 78 F (26 C)
Dew Point: 68 F (20 C)
Relative Humidity: 69%
Pressure (altimeter): 29.85 in. Hg (1011 hPa)
ob: LLBG 212220Z VRB03KT 9999 FEW025 26/20 Q1011 NOSIG
cycle: 22

Station Type Date Time Source
LLBG TAF 2019/08/21 18:06 UTC NOAA

TAF TAF LLBG 211702Z 2118/2218 34006KT CAVOK
BECMG 2119/2121 VRB03KT 9999 FEW025 PROB40 2122/2205 15005KT SCT020
BECMG 2207/2209 31010KT FEW030 TX33/2211Z TN23/2203Z

Example: see airport list